Time;durP1;ratioP1;P1;durP2;ratioP2;P2;SDS_P1;SDS_P2;PMS_P1;PMS_P2;Temp;Humidity;BMP_temperature;BMP_pressure;BME280_temperature;BME280_humidity;BME280_pressure;Samples;Min_cycle;Max_cycle;Signal;HPM_P1;HPM_P2
2022/12/06 00:01:05;;;;;;;1999.90;999.90;;;4.80;99.90;;;;;;5052032;28;20978;-68
2022/12/06 00:03:32;;;;;;;1999.90;999.90;;;4.80;99.90;;;;;;5052179;28;20448;-68
2022/12/06 00:06:01;;;;;;;1999.90;999.90;;;4.80;99.90;;;;;;5052296;28;20456;-68
2022/12/06 00:08:29;;;;;;;1999.90;999.90;;;4.80;99.90;;;;;;5051835;28;20547;-68
2022/12/06 00:11:03;;;;;;;1999.90;999.90;;;4.90;99.90;;;;;;5052121;28;20873;-68
2022/12/06 00:13:30;;;;;;;1999.90;999.90;;;4.90;99.90;;;;;;5051892;28;20444;-68
2022/12/06 00:15:59;;;;;;;1999.90;999.90;;;4.90;99.90;;;;;;5051586;28;20831;-68
2022/12/06 00:18:26;;;;;;;1999.90;999.90;;;4.90;99.90;;;;;;5051784;28;20684;-68
2022/12/06 00:20:52;;;;;;;1999.90;999.90;;;4.90;99.90;;;;;;5051920;28;21003;-68
2022/12/06 00:23:19;;;;;;;1999.90;999.90;;;4.80;99.90;;;;;;5052154;28;21196;-68
2022/12/06 00:25:47;;;;;;;1999.90;999.90;;;4.70;99.90;;;;;;5051666;28;20825;-68
2022/12/06 00:28:14;;;;;;;1999.90;999.90;;;4.70;99.90;;;;;;5051554;28;20470;-68
2022/12/06 00:30:41;;;;;;;1999.90;999.90;;;4.70;99.90;;;;;;5051509;28;20483;-68
2022/12/06 00:33:07;;;;;;;1999.90;999.90;;;4.60;99.90;;;;;;5051826;28;20440;-68
2022/12/06 00:35:34;;;;;;;1999.90;999.90;;;4.60;99.90;;;;;;5051346;28;20491;-68
2022/12/06 00:38:01;;;;;;;1999.90;999.90;;;4.70;99.90;;;;;;5051678;28;20444;-68
2022/12/06 00:40:28;;;;;;;1999.90;999.90;;;4.70;99.90;;;;;;5051075;28;20459;-68
2022/12/06 00:42:56;;;;;;;1999.90;999.90;;;4.80;99.90;;;;;;5051394;28;20456;-68
2022/12/06 00:45:23;;;;;;;1999.90;999.90;;;4.80;99.90;;;;;;5051590;28;20444;-68
2022/12/06 00:47:49;;;;;;;1999.90;999.90;;;4.80;99.90;;;;;;5051569;28;20448;-68
2022/12/06 00:50:16;;;;;;;1999.90;999.90;;;4.70;99.90;;;;;;5051009;28;20502;-68
2022/12/06 00:52:43;;;;;;;1999.90;999.90;;;4.70;99.90;;;;;;5051132;28;20975;-68
2022/12/06 00:55:10;;;;;;;1999.90;999.90;;;4.60;99.90;;;;;;5051423;28;20444;-68
2022/12/06 00:57:36;;;;;;;1999.90;999.90;;;4.50;99.90;;;;;;5051225;28;20432;-68
2022/12/06 01:00:06;;;;;;;1999.90;999.90;;;4.60;99.90;;;;;;5051455;28;20444;-68
2022/12/06 01:02:33;;;;;;;1999.90;999.90;;;4.60;99.90;;;;;;5051490;28;20464;-68
2022/12/06 01:04:59;;;;;;;1999.90;999.90;;;4.50;99.90;;;;;;5051351;28;20443;-68
2022/12/06 01:07:26;;;;;;;1999.90;999.90;;;4.30;99.90;;;;;;5051219;28;20444;-68
2022/12/06 01:09:53;;;;;;;1999.90;999.90;;;4.30;99.90;;;;;;5050767;28;20476;-68
2022/12/06 01:12:20;;;;;;;1999.90;999.90;;;4.20;99.90;;;;;;5050952;28;20455;-68
2022/12/06 01:14:46;;;;;;;1999.90;999.90;;;4.10;99.90;;;;;;5051098;28;20459;-68
2022/12/06 01:17:15;;;;;;;1999.90;999.90;;;4.10;99.90;;;;;;5051069;28;20860;-68
2022/12/06 01:19:41;;;;;;;1999.90;999.90;;;4.00;99.90;;;;;;5050410;28;21163;-68
2022/12/06 01:22:08;;;;;;;1999.90;999.90;;;4.00;99.90;;;;;;5050740;28;20843;-68
2022/12/06 01:24:36;;;;;;;1999.90;999.90;;;4.00;99.90;;;;;;5050737;28;20817;-68
2022/12/06 01:27:03;;;;;;;1999.90;999.90;;;4.00;99.90;;;;;;5050450;28;20451;-68
2022/12/06 01:29:29;;;;;;;1999.90;999.90;;;4.00;99.90;;;;;;5050249;28;20444;-68
2022/12/06 01:31:56;;;;;;;1999.90;999.90;;;4.10;99.90;;;;;;5050535;28;20690;-68
2022/12/06 01:34:24;;;;;;;1999.90;999.90;;;4.10;99.90;;;;;;5050172;28;20444;-68
2022/12/06 01:36:51;;;;;;;1999.90;999.90;;;4.10;99.90;;;;;;5050538;28;20450;-68
2022/12/06 01:39:19;;;;;;;1999.90;999.90;;;4.10;99.90;;;;;;5050153;28;20443;-68
2022/12/06 01:41:46;;;;;;;1999.90;999.90;;;4.10;99.90;;;;;;5050628;28;20551;-68
2022/12/06 01:44:39;;;;;;;1999.90;999.90;;;4.10;99.90;;;;;;5050420;28;20561;-68
2022/12/06 01:47:10;;;;;;;1999.90;999.90;;;4.20;99.90;;;;;;5050446;28;20444;-68
2022/12/06 01:49:39;;;;;;;1999.90;999.90;;;4.20;99.90;;;;;;5049882;28;20446;-68
2022/12/06 01:52:10;;;;;;;1999.90;999.90;;;4.30;99.90;;;;;;5050132;28;20486;-68
2022/12/06 01:54:39;;;;;;;1999.90;999.90;;;4.40;99.90;;;;;;5050352;28;20444;-68
2022/12/06 01:57:09;;;;;;;1999.90;999.90;;;4.50;99.90;;;;;;5050048;28;20534;-68
2022/12/06 01:59:36;;;;;;;1999.90;999.90;;;4.50;99.90;;;;;;5049733;28;20443;-68
2022/12/06 02:02:03;;;;;;;1999.90;999.90;;;4.50;99.90;;;;;;5049459;28;21120;-68
2022/12/06 02:04:31;;;;;;;1999.90;999.90;;;4.50;99.90;;;;;;5050138;28;20444;-68
2022/12/06 02:07:00;;;;;;;1999.90;999.90;;;4.50;99.90;;;;;;5050302;28;20480;-68
2022/12/06 02:09:29;;;;;;;1999.90;999.90;;;4.60;99.90;;;;;;5050131;28;20458;-68
2022/12/06 02:11:56;;;;;;;1999.90;999.90;;;4.50;99.90;;;;;;5049580;28;20484;-68
2022/12/06 02:14:26;;;;;;;1999.90;999.90;;;4.50;99.90;;;;;;5049679;28;20454;-68
2022/12/06 02:17:05;;;;;;;1999.90;999.90;;;4.50;99.90;;;;;;5049827;28;20448;-68
2022/12/06 02:20:03;;;;;;;1999.90;999.90;;;4.50;99.90;;;;;;5049850;28;20474;-68
2022/12/06 02:22:47;;;;;;;1999.90;999.90;;;4.50;99.90;;;;;;5049707;28;20513;-68
2022/12/06 02:25:36;;;;;;;1999.90;999.90;;;4.50;99.90;;;;;;5050045;28;20447;-68
2022/12/06 02:28:31;;;;;;;1999.90;999.90;;;4.60;99.90;;;;;;5049479;28;20459;-69
2022/12/06 02:31:07;;;;;;;1999.90;999.90;;;4.60;99.90;;;;;;5049518;28;20490;-68
2022/12/06 02:33:40;;;;;;;1999.90;999.90;;;4.60;99.90;;;;;;5049397;28;20444;-68
2022/12/06 02:36:15;;;;;;;1999.90;999.90;;;4.70;99.90;;;;;;5049622;28;20459;-68
2022/12/06 02:38:47;;;;;;;1999.90;999.90;;;4.60;99.90;;;;;;5052052;28;20973;-68
2022/12/06 02:41:20;;;;;;;1999.90;999.90;;;4.70;99.90;;;;;;5053717;28;20460;-68
2022/12/06 02:43:52;;;;;;;1999.90;999.90;;;4.70;99.90;;;;;;5053488;28;20440;-69
2022/12/06 02:46:22;;;;;;;1999.90;999.90;;;4.70;99.90;;;;;;5054121;28;20816;-68
2022/12/06 02:48:53;;;;;;;1999.90;999.90;;;4.70;99.90;;;;;;5053664;28;20446;-68
2022/12/06 02:51:20;;;;;;;1999.90;999.90;;;4.80;99.90;;;;;;5053488;28;20476;-68
2022/12/06 02:53:51;;;;;;;1999.90;999.90;;;4.80;99.90;;;;;;5053635;28;20435;-68
2022/12/06 02:56:19;;;;;;;1999.90;999.90;;;4.80;99.90;;;;;;5053430;28;20466;-68
2022/12/06 02:58:46;;;;;;;1999.90;999.90;;;4.80;99.90;;;;;;5053368;28;20452;-68
2022/12/06 03:01:17;;;;;;;1999.90;999.90;;;4.70;99.90;;;;;;5053104;28;21016;-68
2022/12/06 03:04:17;;;;;;;1999.90;999.90;;;4.80;99.90;;;;;;5053474;28;20450;-68
2022/12/06 03:06:56;;;;;;;1999.90;999.90;;;4.80;99.90;;;;;;5053101;28;20446;-68
2022/12/06 03:09:44;;;;;;;1999.90;999.90;;;4.80;99.90;;;;;;5053003;28;20942;-68
2022/12/06 03:12:17;;;;;;;1999.90;999.90;;;4.90;99.90;;;;;;5052993;28;20494;-68
2022/12/06 03:14:51;;;;;;;1999.90;999.90;;;4.90;99.90;;;;;;5053353;28;20448;-68
2022/12/06 03:17:24;;;;;;;1999.90;999.90;;;4.80;99.90;;;;;;5053020;28;20451;-68
2022/12/06 03:19:58;;;;;;;1999.90;999.90;;;4.80;99.90;;;;;;5052858;28;20444;-68
2022/12/06 03:22:31;;;;;;;1999.90;999.90;;;4.80;99.90;;;;;;5052905;28;20533;-68
2022/12/06 03:24:59;;;;;;;1999.90;999.90;;;4.80;99.90;;;;;;5053188;28;20439;-68
2022/12/06 03:27:28;;;;;;;1999.90;999.90;;;4.80;99.90;;;;;;5052818;28;20812;-68
2022/12/06 03:29:58;;;;;;;1999.90;999.90;;;4.80;99.90;;;;;;5052984;28;20435;-68
2022/12/06 03:32:30;;;;;;;1999.90;999.90;;;4.90;99.90;;;;;;5052837;28;20484;-68
2022/12/06 03:35:02;;;;;;;1999.90;999.90;;;4.80;99.90;;;;;;5053213;28;20479;-68
2022/12/06 03:37:32;;;;;;;1999.90;999.90;;;4.80;99.90;;;;;;5053081;28;20942;-68
2022/12/06 03:40:04;;;;;;;1999.90;999.90;;;4.80;99.90;;;;;;5052790;28;20470;-68
2022/12/06 03:42:31;;;;;;;1999.90;999.90;;;4.80;99.90;;;;;;5053084;28;20479;-68
2022/12/06 03:44:58;;;;;;;1999.90;999.90;;;4.70;99.90;;;;;;5052530;28;20452;-68
2022/12/06 03:47:31;;;;;;;1999.90;999.90;;;4.60;99.90;;;;;;5052900;28;20446;-66
2022/12/06 03:50:04;;;;;;;1999.90;999.90;;;4.70;99.90;;;;;;5051424;28;20452;-66
2022/12/06 03:52:32;;;;;;;1999.90;999.90;;;4.80;99.90;;;;;;5052338;28;20988;-67
2022/12/06 03:54:59;;;;;;;1999.90;999.90;;;4.90;99.90;;;;;;5052421;28;20825;-67
2022/12/06 03:57:26;;;;;;;1999.90;999.90;;;4.90;99.90;;;;;;5052604;28;20455;-67
2022/12/06 03:59:53;;;;;;;1999.90;999.90;;;4.90;99.90;;;;;;5051927;28;21254;-67
2022/12/06 04:02:20;;;;;;;1999.90;999.90;;;5.00;99.90;;;;;;5052259;28;20463;-66
2022/12/06 04:04:48;;;;;;;1999.90;999.90;;;4.90;99.90;;;;;;5052010;28;20444;-67
2022/12/06 04:07:20;;;;;;;1999.90;999.90;;;4.80;99.90;;;;;;5052239;28;20938;-67
2022/12/06 04:09:55;;;;;;;1999.90;999.90;;;4.80;99.90;;;;;;5051885;28;20539;-67
2022/12/06 04:15:08;;;;;;;1999.90;999.90;;;4.70;99.90;;;;;;5052028;28;20443;-67
2022/12/06 04:20:22;;;;;;;1999.90;999.90;;;4.70;99.90;;;;;;5051634;28;20423;-67
2022/12/06 04:23:04;;;;;;;1999.90;999.90;;;4.70;99.90;;;;;;5051774;28;20446;-67
2022/12/06 04:25:32;;;;;;;1999.90;999.90;;;4.70;99.90;;;;;;5051898;28;20448;-67
2022/12/06 04:38:58;;;;;;;1999.90;999.90;;;4.70;99.90;;;;;;5051277;28;20477;-67
2022/12/06 04:44:09;;;;;;;1999.90;999.90;;;4.60;99.90;;;;;;5051344;28;20422;-67
2022/12/06 04:46:36;;;;;;;1999.90;999.90;;;4.80;99.90;;;;;;5051358;28;20443;-67
2022/12/06 04:49:03;;;;;;;1999.90;999.90;;;4.90;99.90;;;;;;5051261;28;20445;-67
2022/12/06 04:51:30;;;;;;;1999.90;999.90;;;4.90;99.90;;;;;;5051565;28;20483;-67
2022/12/06 04:53:58;;;;;;;1999.90;999.90;;;4.80;99.90;;;;;;5051324;28;20444;-67
2022/12/06 04:56:25;;;;;;;1999.90;999.90;;;4.80;99.90;;;;;;5051719;28;20448;-67
2022/12/06 04:58:51;;;;;;;1999.90;999.90;;;4.90;99.90;;;;;;5050846;28;20458;-67
2022/12/06 05:01:18;;;;;;;1999.90;999.90;;;4.80;99.90;;;;;;5050084;28;20463;-67
2022/12/06 05:03:45;;;;;;;1999.90;999.90;;;4.80;99.90;;;;;;5051234;28;20459;-67
2022/12/06 05:06:12;;;;;;;1999.90;999.90;;;4.70;99.90;;;;;;5051213;28;20458;-67
2022/12/06 05:08:39;;;;;;;1999.90;999.90;;;4.70;99.90;;;;;;5050765;28;20444;-67
2022/12/06 05:11:07;;;;;;;1999.90;999.90;;;4.70;99.90;;;;;;5050987;28;20480;-67
2022/12/06 05:13:34;;;;;;;1999.90;999.90;;;4.70;99.90;;;;;;5050778;28;20452;-67
2022/12/06 05:16:02;;;;;;;1999.90;999.90;;;4.90;99.90;;;;;;5050934;28;20468;-67
2022/12/06 05:18:30;;;;;;;1999.90;999.90;;;5.00;99.90;;;;;;5050743;28;20451;-67
2022/12/06 05:21:05;;;;;;;1999.90;999.90;;;5.00;99.90;;;;;;5051088;28;20464;-67
2022/12/06 05:23:32;;;;;;;1999.90;999.90;;;4.90;99.90;;;;;;5051399;28;20501;-67
2022/12/06 05:26:00;;;;;;;1999.90;999.90;;;4.90;99.90;;;;;;5050789;28;20452;-67
2022/12/06 05:28:28;;;;;;;1999.90;999.90;;;4.80;99.90;;;;;;5050261;28;20448;-66
2022/12/06 05:30:55;;;;;;;1999.90;999.90;;;4.80;99.90;;;;;;5050548;28;20463;-66
2022/12/06 05:33:23;;;;;;;1999.90;999.90;;;4.80;99.90;;;;;;5050914;28;20444;-68
2022/12/06 05:35:50;;;;;;;1999.90;999.90;;;4.80;99.90;;;;;;5050669;28;20456;-72
2022/12/06 05:38:17;;;;;;;1999.90;999.90;;;4.80;99.90;;;;;;5049274;28;20534;-66
2022/12/06 05:40:44;;;;;;;1999.90;999.90;;;4.80;99.90;;;;;;5039855;28;20838;-69
2022/12/06 05:43:11;;;;;;;1999.90;999.90;;;4.80;99.90;;;;;;5030180;28;20960;-70
2022/12/06 05:45:40;;;;;;;1999.90;999.90;;;4.90;99.90;;;;;;5030728;28;20445;-68
2022/12/06 05:48:07;;;;;;;1999.90;999.90;;;4.90;99.90;;;;;;5030232;28;20449;-69
2022/12/06 05:50:34;;;;;;;1999.90;999.90;;;4.90;99.90;;;;;;5030404;28;20973;-69
2022/12/06 05:53:01;;;;;;;1999.90;999.90;;;4.90;99.90;;;;;;5039007;28;20479;-68
2022/12/06 05:55:29;;;;;;;1999.90;999.90;;;4.90;99.90;;;;;;5043858;28;20456;-68
2022/12/06 05:57:55;;;;;;;1999.90;999.90;;;4.90;99.90;;;;;;5030163;28;20449;-70
2022/12/06 06:00:22;;;;;;;1999.90;999.90;;;5.00;99.90;;;;;;5030205;28;20842;-69
2022/12/06 06:02:51;;;;;;;1999.90;999.90;;;5.10;99.90;;;;;;5030639;28;21057;-70
2022/12/06 06:05:18;;;;;;;1999.90;999.90;;;5.10;99.90;;;;;;5031991;28;20822;-70
2022/12/06 06:07:44;;;;;;;1999.90;999.90;;;5.10;99.90;;;;;;5047424;28;20451;-71
2022/12/06 06:10:12;;;;;;;1999.90;999.90;;;5.10;99.90;;;;;;5046105;28;20491;-70
2022/12/06 06:12:39;;;;;;;1999.90;999.90;;;5.10;99.90;;;;;;5047297;28;20492;-70
2022/12/06 06:15:07;;;;;;;1999.90;999.90;;;5.10;99.90;;;;;;5047929;28;20448;-70
2022/12/06 06:17:33;;;;;;;1999.90;999.90;;;5.10;99.90;;;;;;5049935;28;20458;-69
2022/12/06 06:20:05;;;;;;;1999.90;999.90;;;5.00;99.90;;;;;;5048037;28;20448;-71
2022/12/06 06:22:32;;;;;;;1999.90;999.90;;;5.00;99.90;;;;;;5048474;28;20470;-70
2022/12/06 06:24:59;;;;;;;1999.90;999.90;;;5.00;99.90;;;;;;5048842;28;20543;-70
2022/12/06 06:27:26;;;;;;;1999.90;999.90;;;4.90;99.90;;;;;;5049316;28;20502;-70
2022/12/06 06:29:53;;;;;;;1999.90;999.90;;;5.10;99.90;;;;;;5049980;28;20459;-71
2022/12/06 06:32:20;;;;;;;1999.90;999.90;;;5.10;99.90;;;;;;5050228;28;20480;-70
2022/12/06 06:34:47;;;;;;;1999.90;999.90;;;5.10;99.90;;;;;;5050797;28;20499;-70
2022/12/06 06:37:15;;;;;;;1999.90;999.90;;;5.10;99.90;;;;;;5050563;28;20456;-70
2022/12/06 06:39:41;;;;;;;1999.90;999.90;;;5.00;99.90;;;;;;5050388;28;20444;-70
2022/12/06 06:42:08;;;;;;;1999.90;999.90;;;5.10;99.90;;;;;;5050552;28;20460;-70
2022/12/06 06:44:35;;;;;;;1999.90;999.90;;;5.20;99.90;;;;;;5049784;28;20444;-71
2022/12/06 06:47:02;;;;;;;1999.90;999.90;;;5.10;99.90;;;;;;5049565;28;20440;-69
2022/12/06 06:49:29;;;;;;;1999.90;999.90;;;5.00;99.90;;;;;;5049062;28;20452;-71
2022/12/06 06:51:55;;;;;;;1999.90;999.90;;;4.90;99.90;;;;;;5049574;28;20552;-70
2022/12/06 06:54:26;;;;;;;1999.90;999.90;;;4.80;99.90;;;;;;5049681;28;20818;-70
2022/12/06 06:56:55;;;;;;;1999.90;999.90;;;4.80;99.90;;;;;;5049489;28;20444;-70
2022/12/06 06:59:21;;;;;;;1999.90;999.90;;;4.80;99.90;;;;;;5049199;28;20501;-69
2022/12/06 07:01:48;;;;;;;1999.90;999.90;;;4.80;99.90;;;;;;5049340;28;20464;-71
2022/12/06 07:04:16;;;;;;;1999.90;999.90;;;4.80;99.90;;;;;;5049286;28;20444;-69
2022/12/06 07:06:42;;;;;;;1999.90;999.90;;;4.80;99.90;;;;;;5049394;28;20447;-70
2022/12/06 07:09:09;;;;;;;1999.90;999.90;;;4.80;99.90;;;;;;5049138;28;20479;-70
2022/12/06 07:11:38;;;;;;;1999.90;999.90;;;4.80;99.90;;;;;;5048948;28;20978;-70
2022/12/06 07:14:04;;;;;;;1999.90;999.90;;;4.80;99.90;;;;;;5049144;28;20447;-70
2022/12/06 07:16:31;;;;;;;1999.90;999.90;;;4.80;99.90;;;;;;5049169;28;20451;-69
2022/12/06 07:18:58;;;;;;;1999.90;999.90;;;4.80;99.90;;;;;;5049000;28;20451;-69
2022/12/06 07:21:25;;;;;;;1999.90;999.90;;;5.00;99.90;;;;;;5049437;28;20464;-70
2022/12/06 07:23:52;;;;;;;1999.90;999.90;;;5.00;99.90;;;;;;5049225;28;20451;-70
2022/12/06 07:26:21;;;;;;;1999.90;999.90;;;5.00;99.90;;;;;;5052896;28;20470;-70
2022/12/06 07:28:50;;;;;;;1999.90;999.90;;;4.90;99.90;;;;;;5052584;28;20446;-69
2022/12/06 07:31:19;;;;;;;1999.90;999.90;;;4.90;99.90;;;;;;5053419;28;20470;-69
2022/12/06 07:33:47;;;;;;;1999.90;999.90;;;4.90;99.90;;;;;;5052717;28;20440;-70
2022/12/06 07:36:15;;;;;;;1999.90;999.90;;;4.90;99.90;;;;;;5052797;28;20459;-69
2022/12/06 07:38:42;;;;;;;1999.90;999.90;;;4.90;99.90;;;;;;5052495;28;20474;-70
2022/12/06 07:46:39;;;;;;;1999.90;999.90;;;4.90;99.90;;;;;;5052449;28;20926;-69
2022/12/06 07:49:07;;;;;;;1999.90;999.90;;;5.00;99.90;;;;;;5052178;28;20828;-69
2022/12/06 07:51:33;;;;;;;1999.90;999.90;;;5.10;99.90;;;;;;5052422;28;20471;-69
2022/12/06 07:54:01;;;;;;;1999.90;999.90;;;5.10;99.90;;;;;;5052372;28;20448;-69
2022/12/06 07:56:28;;;;;;;1999.90;999.90;;;5.10;99.90;;;;;;5052490;28;20448;-69
2022/12/06 07:58:56;;;;;;;1999.90;999.90;;;5.00;99.90;;;;;;5052138;28;20455;-69
2022/12/06 08:01:23;;;;;;;1999.90;999.90;;;5.00;99.90;;;;;;5052413;28;20470;-71
2022/12/06 08:03:50;;;;;;;1999.90;999.90;;;5.00;99.90;;;;;;5052445;28;20444;-69
2022/12/06 08:06:17;;;;;;;1999.90;999.90;;;4.90;99.90;;;;;;5052160;28;20978;-70
2022/12/06 08:08:44;;;;;;;1999.90;999.90;;;4.90;99.90;;;;;;5051821;28;20459;-71
2022/12/06 08:11:10;;;;;;;1999.90;999.90;;;5.00;99.90;;;;;;5052096;28;20476;-70
2022/12/06 08:13:38;;;;;;;1999.90;999.90;;;5.10;99.90;;;;;;5052147;28;20480;-70
2022/12/06 08:16:08;;;;;;;1999.90;999.90;;;5.20;99.90;;;;;;5052298;28;20448;-69
2022/12/06 08:18:36;;;;;;;1999.90;999.90;;;5.20;99.90;;;;;;5051697;28;21173;-69
2022/12/06 08:21:03;;;;;;;1999.90;999.90;;;5.30;99.90;;;;;;5051719;28;20464;-70
2022/12/06 08:23:29;;;;;;;1999.90;999.90;;;5.40;99.90;;;;;;5051996;28;20440;-69
2022/12/06 08:25:57;;;;;;;1999.90;999.90;;;5.40;99.90;;;;;;5052017;28;20444;-69
2022/12/06 08:28:24;;;;;;;1999.90;999.90;;;5.40;99.90;;;;;;5051600;28;20463;-69
2022/12/06 08:30:51;;;;;;;1999.90;999.90;;;5.50;99.90;;;;;;5051792;28;20486;-69
2022/12/06 08:33:20;;;;;;;1999.90;999.90;;;5.50;99.90;;;;;;5051593;28;20476;-69
2022/12/06 08:35:47;;;;;;;1999.90;999.90;;;5.50;99.90;;;;;;5051258;28;20460;-69
2022/12/06 08:38:14;;;;;;;1999.90;999.90;;;5.60;99.90;;;;;;5048187;28;20452;-70
2022/12/06 08:40:41;;;;;;;1999.90;999.90;;;5.50;99.90;;;;;;5032619;28;20472;-69
2022/12/06 08:43:08;;;;;;;1999.90;999.90;;;5.60;99.90;;;;;;5031750;28;20467;-69
2022/12/06 08:45:35;;;;;;;1999.90;999.90;;;5.60;99.90;;;;;;5031670;28;21107;-69
2022/12/06 08:48:02;;;;;;;1999.90;999.90;;;5.60;99.90;;;;;;5032522;28;20913;-69
2022/12/06 08:50:30;;;;;;;1999.90;999.90;;;5.60;99.90;;;;;;5031650;28;20480;-69
2022/12/06 08:52:57;;;;;;;1999.90;999.90;;;5.60;99.90;;;;;;5031468;28;20878;-69
2022/12/06 08:55:24;;;;;;;1999.90;999.90;;;5.70;99.90;;;;;;5031348;28;20471;-69
2022/12/06 08:57:51;;;;;;;1999.90;999.90;;;5.80;99.90;;;;;;5031362;28;20441;-69
2022/12/06 09:00:18;;;;;;;1999.90;999.90;;;5.90;99.90;;;;;;5031009;28;20451;-69
2022/12/06 09:02:45;;;;;;;1999.90;999.90;;;5.90;99.90;;;;;;5031267;28;20464;-69
2022/12/06 09:05:11;;;;;;;1999.90;999.90;;;5.90;99.90;;;;;;5031379;28;20441;-69
2022/12/06 09:07:40;;;;;;;1999.90;999.90;;;6.00;99.90;;;;;;5031192;28;20449;-69
2022/12/06 09:10:07;;;;;;;1999.90;999.90;;;6.10;99.90;;;;;;5030870;28;20459;-69
2022/12/06 09:12:34;;;;;;;1999.90;999.90;;;6.00;99.90;;;;;;5031000;28;20476;-69
2022/12/06 09:15:01;;;;;;;1999.90;999.90;;;6.10;99.90;;;;;;5031078;28;20816;-69
2022/12/06 09:17:28;;;;;;;1999.90;999.90;;;6.00;99.90;;;;;;5030765;28;20523;-69
2022/12/06 09:19:55;;;;;;;1999.90;999.90;;;6.00;99.90;;;;;;5030806;28;20468;-69
2022/12/06 09:22:21;;;;;;;1999.90;999.90;;;5.90;99.90;;;;;;5031083;28;20467;-69
2022/12/06 09:24:49;;;;;;;1999.90;999.90;;;5.90;99.90;;;;;;5030883;28;20455;-69
2022/12/06 09:27:18;;;;;;;1999.90;999.90;;;5.90;99.90;;;;;;5031134;28;20444;-69
2022/12/06 09:29:44;;;;;;;1999.90;999.90;;;5.90;99.90;;;;;;5030354;28;20449;-69
2022/12/06 09:32:11;;;;;;;1999.90;999.90;;;5.90;99.90;;;;;;5030604;28;20484;-69
2022/12/06 09:34:38;;;;;;;1999.90;999.90;;;5.90;99.90;;;;;;5030773;28;20453;-70
2022/12/06 09:37:10;;;;;;;1999.90;999.90;;;5.90;99.90;;;;;;5030897;28;20940;-69
2022/12/06 09:39:40;;;;;;;1999.90;999.90;;;5.80;99.90;;;;;;5030397;28;20985;-68
2022/12/06 09:42:50;;;;;;;1999.90;999.90;;;5.80;99.90;;;;;;5031219;28;20464;-68
2022/12/06 09:45:30;;;;;;;1999.90;999.90;;;5.90;99.90;;;;;;5030809;28;20451;-68
2022/12/06 09:48:23;;;;;;;1999.90;999.90;;;5.90;99.90;;;;;;5030249;28;20502;-68
2022/12/06 09:51:02;;;;;;;1999.90;999.90;;;5.90;99.90;;;;;;5030463;28;20464;-69
2022/12/06 09:53:39;;;;;;;1999.90;999.90;;;5.90;99.90;;;;;;5030513;28;20495;-69
2022/12/06 09:56:12;;;;;;;1999.90;999.90;;;5.90;99.90;;;;;;5030530;28;20445;-69
2022/12/06 09:58:56;;;;;;;1999.90;999.90;;;6.00;99.90;;;;;;5030366;28;20448;-70
2022/12/06 10:01:31;;;;;;;1999.90;999.90;;;5.90;99.90;;;;;;5030836;28;20468;-70
2022/12/06 10:04:14;;;;;;;1999.90;999.90;;;5.90;99.90;;;;;;5030797;28;20458;-69
2022/12/06 10:06:48;;;;;;;1999.90;999.90;;;5.90;99.90;;;;;;5030480;28;20965;-69
2022/12/06 10:09:30;;;;;;;1999.90;999.90;;;5.80;99.90;;;;;;5029789;28;20448;-69
2022/12/06 10:12:22;;;;;;;1999.90;999.90;;;5.60;99.90;;;;;;5030339;28;20836;-69
2022/12/06 10:15:04;;;;;;;1999.90;999.90;;;5.50;99.90;;;;;;5030058;28;20445;-69
2022/12/06 10:17:41;;;;;;;1999.90;999.90;;;5.40;99.90;;;;;;5029870;28;20448;-69
2022/12/06 10:20:15;;;;;;;1999.90;999.90;;;5.40;99.90;;;;;;5029693;28;20447;-69
2022/12/06 10:22:56;;;;;;;1999.90;999.90;;;5.40;99.90;;;;;;5029953;28;20824;-69
2022/12/06 10:25:30;;;;;;;1999.90;999.90;;;5.40;99.90;;;;;;5029723;28;20453;-69
2022/12/06 10:28:08;;;;;;;1999.90;999.90;;;5.30;99.90;;;;;;5029748;28;20451;-69
2022/12/06 10:30:44;;;;;;;1999.90;999.90;;;5.30;99.90;;;;;;5029359;28;21038;-68
2022/12/06 10:33:20;;;;;;;1999.90;999.90;;;5.30;99.90;;;;;;5029869;28;20476;-69
2022/12/06 10:35:53;;;;;;;1999.90;999.90;;;5.30;99.90;;;;;;5029597;28;20456;-69
2022/12/06 10:38:26;;;;;;;1999.90;999.90;;;5.20;99.90;;;;;;5029406;28;20449;-69
2022/12/06 10:41:03;;;;;;;1999.90;999.90;;;5.20;99.90;;;;;;5029400;28;20473;-69
2022/12/06 10:43:38;;;;;;;1999.90;999.90;;;5.20;99.90;;;;;;5029920;28;20518;-69
2022/12/06 10:49:01;;;;;;;1999.90;999.90;;;5.30;99.90;;;;;;5029245;28;20424;-69
2022/12/06 10:51:35;;;;;;;1999.90;999.90;;;5.40;99.90;;;;;;5029512;28;20506;-69
2022/12/06 10:54:10;;;;;;;1999.90;999.90;;;5.40;99.90;;;;;;5029658;28;20488;-69
2022/12/06 10:56:39;;;;;;;1999.90;999.90;;;5.40;99.90;;;;;;5029561;28;20455;-69
2022/12/06 10:59:19;;;;;;;1999.90;999.90;;;5.30;99.90;;;;;;5029326;28;20957;-69
2022/12/06 11:01:50;;;;;;;1999.90;999.90;;;5.30;99.90;;;;;;5033400;28;20464;-70
2022/12/06 11:04:24;;;;;;;1999.90;999.90;;;5.30;99.90;;;;;;5033475;28;20452;-69
2022/12/06 11:06:55;;;;;;;1999.90;999.90;;;5.30;99.90;;;;;;5033243;28;20457;-69
2022/12/06 11:09:31;;;;;;;1999.90;999.90;;;5.30;99.90;;;;;;5033078;28;20447;-69
2022/12/06 11:11:58;;;;;;;1999.90;999.90;;;5.20;99.90;;;;;;5033109;28;20475;-70
2022/12/06 11:14:29;;;;;;;1999.90;999.90;;;5.20;99.90;;;;;;5033322;28;20487;-70
2022/12/06 11:17:00;;;;;;;1999.90;999.90;;;5.20;99.90;;;;;;5033318;28;20508;-70
2022/12/06 11:19:34;;;;;;;1999.90;999.90;;;5.20;99.90;;;;;;5033007;28;20452;-69
2022/12/06 11:22:12;;;;;;;1999.90;999.90;;;5.20;99.90;;;;;;5033222;28;20468;-69
2022/12/06 11:24:46;;;;;;;1999.90;999.90;;;5.30;99.90;;;;;;5033088;28;20498;-70
2022/12/06 11:27:16;;;;;;;1999.90;999.90;;;5.30;99.90;;;;;;5033268;28;20445;-70
2022/12/06 11:29:44;;;;;;;1999.90;999.90;;;5.20;99.90;;;;;;5032648;28;20935;-70
2022/12/06 11:32:15;;;;;;;1999.90;999.90;;;5.30;99.90;;;;;;5033135;28;20487;-69
2022/12/06 11:34:46;;;;;;;1999.90;999.90;;;5.30;99.90;;;;;;5032701;28;20512;-69
2022/12/06 11:37:16;;;;;;;1999.90;999.90;;;5.20;99.90;;;;;;5033266;28;20480;-70
2022/12/06 11:39:44;;;;;;;1999.90;999.90;;;5.10;99.90;;;;;;5032532;28;20452;-69
2022/12/06 11:42:14;;;;;;;1999.90;999.90;;;5.00;99.90;;;;;;5032868;28;20504;-69
2022/12/06 11:44:44;;;;;;;1999.90;999.90;;;4.90;99.90;;;;;;5032655;28;20444;-69
2022/12/06 11:47:17;;;;;;;1999.90;999.90;;;4.90;99.90;;;;;;5032691;28;20931;-69
2022/12/06 11:49:56;;;;;;;1999.90;999.90;;;4.80;99.90;;;;;;5032445;28;20452;-69
2022/12/06 11:52:30;;;;;;;1999.90;999.90;;;4.90;99.90;;;;;;5032607;28;20476;-69
2022/12/06 11:54:59;;;;;;;1999.90;999.90;;;4.90;99.90;;;;;;5032652;28;20443;-70
2022/12/06 11:57:36;;;;;;;1999.90;999.90;;;5.00;99.90;;;;;;5032577;28;20809;-70
2022/12/06 12:00:17;;;;;;;1999.90;999.90;;;5.00;99.90;;;;;;5031901;28;20452;-70
2022/12/06 12:02:47;;;;;;;1999.90;999.90;;;5.00;99.90;;;;;;5032566;28;20465;-70
2022/12/06 12:05:23;;;;;;;1999.90;999.90;;;5.00;99.90;;;;;;5032084;28;20460;-69
2022/12/06 12:07:54;;;;;;;1999.90;999.90;;;4.90;99.90;;;;;;5032351;28;20502;-70
2022/12/06 12:10:41;;;;;;;1999.90;999.90;;;4.90;99.90;;;;;;5031501;28;20449;-70
2022/12/06 12:16:16;;;;;;;1999.90;999.90;;;4.90;99.90;;;;;;5032252;28;20428;-70
2022/12/06 12:18:56;;;;;;;1999.90;999.90;;;4.80;99.90;;;;;;5031802;28;20455;-69
2022/12/06 12:21:38;;;;;;;1999.90;999.90;;;4.80;99.90;;;;;;5032104;28;20476;-69
2022/12/06 12:24:35;;;;;;;1999.90;999.90;;;4.80;99.90;;;;;;5032270;28;20441;-69
2022/12/06 12:27:04;;;;;;;1999.90;999.90;;;4.80;99.90;;;;;;5031985;28;20453;-69
2022/12/06 12:29:31;;;;;;;1999.90;999.90;;;4.70;99.90;;;;;;5031857;28;20444;-69
2022/12/06 12:31:59;;;;;;;1999.90;999.90;;;4.80;99.90;;;;;;5032017;28;20469;-69
2022/12/06 12:34:29;;;;;;;1999.90;999.90;;;4.80;99.90;;;;;;5031719;28;20579;-69
2022/12/06 12:36:59;;;;;;;1999.90;999.90;;;4.70;99.90;;;;;;5031782;28;20965;-70
2022/12/06 12:39:32;;;;;;;1999.90;999.90;;;4.70;99.90;;;;;;5031402;28;20449;-69
2022/12/06 12:41:59;;;;;;;1999.90;999.90;;;4.70;99.90;;;;;;5031901;28;21215;-70
2022/12/06 12:44:29;;;;;;;1999.90;999.90;;;4.60;99.90;;;;;;5032080;28;20445;-69
2022/12/06 12:46:58;;;;;;;1999.90;999.90;;;4.60;99.90;;;;;;5031875;28;21163;-69
2022/12/06 12:49:30;;;;;;;1999.90;999.90;;;4.70;99.90;;;;;;5031352;28;20441;-70
2022/12/06 12:51:57;;;;;;;1999.90;999.90;;;4.70;99.90;;;;;;5031692;28;20867;-69
2022/12/06 12:54:28;;;;;;;1999.90;999.90;;;4.70;99.90;;;;;;5031635;28;20480;-71